sensor_id;sensor_type;location;lat;lon;timestamp;pressure;altitude;pressure_sealevel;temperature;humidity
55171;BME280;41060;47.510;8.680;2023-01-27T00:00:28;97134.28;;;3.59;50.48
55171;BME280;41060;47.510;8.680;2023-01-27T00:02:54;97150.84;;;3.59;50.47
55171;BME280;41060;47.510;8.680;2023-01-27T00:05:21;97150.91;;;3.75;50.49
55171;BME280;41060;47.510;8.680;2023-01-27T00:07:50;97149.00;;;3.61;50.52
55171;BME280;41060;47.510;8.680;2023-01-27T00:10:18;97147.31;;;3.60;50.15
55171;BME280;41060;47.510;8.680;2023-01-27T00:12:46;97114.72;;;3.31;50.34
55171;BME280;41060;47.510;8.680;2023-01-27T00:15:32;97162.09;;;3.44;50.70
55171;BME280;41060;47.510;8.680;2023-01-27T00:17:59;97156.00;;;3.44;51.63
55171;BME280;41060;47.510;8.680;2023-01-27T00:20:26;97086.56;;;3.02;50.59
55171;BME280;41060;47.510;8.680;2023-01-27T00:23:15;97153.09;;;3.50;50.78
55171;BME280;41060;47.510;8.680;2023-01-27T00:26:01;97150.94;;;3.41;51.13
55171;BME280;41060;47.510;8.680;2023-01-27T00:28:31;97150.19;;;3.37;51.45
55171;BME280;41060;47.510;8.680;2023-01-27T00:30:58;97151.72;;;3.43;51.62
55171;BME280;41060;47.510;8.680;2023-01-27T00:33:25;97145.63;;;3.42;50.62
55171;BME280;41060;47.510;8.680;2023-01-27T00:35:56;97098.13;;;2.98;51.71
55171;BME280;41060;47.510;8.680;2023-01-27T00:38:27;97086.56;;;3.02;51.32
55171;BME280;41060;47.510;8.680;2023-01-27T00:40:55;97138.38;;;3.47;51.49
55171;BME280;41060;47.510;8.680;2023-01-27T00:43:35;97141.78;;;3.49;50.90
55171;BME280;41060;47.510;8.680;2023-01-27T00:46:03;97139.38;;;3.45;50.92
55171;BME280;41060;47.510;8.680;2023-01-27T00:48:29;97138.47;;;3.46;51.08
55171;BME280;41060;47.510;8.680;2023-01-27T00:50:57;96988.50;;;2.59;51.69
55171;BME280;41060;47.510;8.680;2023-01-27T00:53:24;97132.75;;;3.55;51.20
55171;BME280;41060;47.510;8.680;2023-01-27T00:55:52;97131.59;;;3.60;51.05
55171;BME280;41060;47.510;8.680;2023-01-27T00:58:18;97139.13;;;3.66;50.81
55171;BME280;41060;47.510;8.680;2023-01-27T01:00:47;97131.44;;;3.63;50.38
55171;BME280;41060;47.510;8.680;2023-01-27T01:03:13;97132.88;;;3.69;50.57
55171;BME280;41060;47.510;8.680;2023-01-27T01:05:41;97126.66;;;3.71;50.23
55171;BME280;41060;47.510;8.680;2023-01-27T01:08:09;97131.06;;;3.71;50.91
55171;BME280;41060;47.510;8.680;2023-01-27T01:10:36;97137.13;;;3.71;50.71
55171;BME280;41060;47.510;8.680;2023-01-27T01:13:07;96712.63;;;1.00;51.13
55171;BME280;41060;47.510;8.680;2023-01-27T01:15:37;97135.41;;;3.36;51.39
55171;BME280;41060;47.510;8.680;2023-01-27T01:18:04;97123.94;;;3.21;51.23
55171;BME280;41060;47.510;8.680;2023-01-27T01:20:34;97048.00;;;2.71;51.90
55171;BME280;41060;47.510;8.680;2023-01-27T01:23:02;97128.41;;;3.36;51.64
55171;BME280;41060;47.510;8.680;2023-01-27T01:25:29;97126.34;;;3.26;51.29
55171;BME280;41060;47.510;8.680;2023-01-27T01:27:55;97099.41;;;2.89;51.57
55171;BME280;41060;47.510;8.680;2023-01-27T01:30:24;96837.19;;;1.50;51.22
55171;BME280;41060;47.510;8.680;2023-01-27T01:32:51;97140.28;;;3.44;51.25
55171;BME280;41060;47.510;8.680;2023-01-27T01:35:18;96960.56;;;2.42;50.21
55171;BME280;41060;47.510;8.680;2023-01-27T01:37:49;97131.06;;;3.54;48.97
55171;BME280;41060;47.510;8.680;2023-01-27T01:40:16;97056.16;;;3.17;48.45
55171;BME280;41060;47.510;8.680;2023-01-27T01:42:56;96859.91;;;2.01;47.94
55171;BME280;41060;47.510;8.680;2023-01-27T01:45:44;97116.34;;;3.68;47.31
55171;BME280;41060;47.510;8.680;2023-01-27T01:48:14;97122.78;;;3.79;47.38
55171;BME280;41060;47.510;8.680;2023-01-27T01:50:46;97116.09;;;3.73;47.17
55171;BME280;41060;47.510;8.680;2023-01-27T01:53:13;97055.03;;;3.40;46.39
55171;BME280;41060;47.510;8.680;2023-01-27T01:55:40;97112.06;;;3.83;46.63
55171;BME280;41060;47.510;8.680;2023-01-27T01:58:09;97001.06;;;3.20;46.13
55171;BME280;41060;47.510;8.680;2023-01-27T02:00:37;97107.00;;;3.96;46.28
55171;BME280;41060;47.510;8.680;2023-01-27T02:03:06;97061.66;;;3.62;45.74
55171;BME280;41060;47.510;8.680;2023-01-27T02:05:39;97102.97;;;3.73;45.86
55171;BME280;41060;47.510;8.680;2023-01-27T02:08:12;97105.75;;;3.87;46.27
55171;BME280;41060;47.510;8.680;2023-01-27T02:10:41;97049.50;;;3.61;46.36
55171;BME280;41060;47.510;8.680;2023-01-27T02:13:08;97093.88;;;3.80;46.03
55171;BME280;41060;47.510;8.680;2023-01-27T02:15:34;97100.41;;;3.56;46.54
55171;BME280;41060;47.510;8.680;2023-01-27T02:18:02;96904.47;;;2.32;46.41
55171;BME280;41060;47.510;8.680;2023-01-27T02:20:36;97102.88;;;3.59;46.46
55171;BME280;41060;47.510;8.680;2023-01-27T02:23:13;97074.00;;;3.60;45.90
55171;BME280;41060;47.510;8.680;2023-01-27T02:25:50;97090.91;;;3.70;46.55
55171;BME280;41060;47.510;8.680;2023-01-27T02:28:19;96922.06;;;2.63;46.11
55171;BME280;41060;47.510;8.680;2023-01-27T02:30:46;97090.84;;;3.72;46.38
55171;BME280;41060;47.510;8.680;2023-01-27T02:33:13;96947.03;;;2.86;46.17
55171;BME280;41060;47.510;8.680;2023-01-27T02:35:51;97093.66;;;3.85;45.89
55171;BME280;41060;47.510;8.680;2023-01-27T02:38:23;97106.09;;;3.97;45.47
55171;BME280;41060;47.510;8.680;2023-01-27T02:40:54;97032.09;;;3.60;45.57
55171;BME280;41060;47.510;8.680;2023-01-27T02:43:22;97103.44;;;3.81;45.84
55171;BME280;41060;47.510;8.680;2023-01-27T02:45:52;97095.28;;;3.87;45.54
55171;BME280;41060;47.510;8.680;2023-01-27T02:48:19;97100.34;;;3.90;44.95
55171;BME280;41060;47.510;8.680;2023-01-27T02:50:45;97094.09;;;3.93;45.47
55171;BME280;41060;47.510;8.680;2023-01-27T02:53:12;97096.19;;;3.86;45.43
55171;BME280;41060;47.510;8.680;2023-01-27T02:55:39;97081.78;;;3.62;45.37
55171;BME280;41060;47.510;8.680;2023-01-27T02:58:07;97090.41;;;3.64;45.81
55171;BME280;41060;47.510;8.680;2023-01-27T03:00:34;97089.66;;;3.78;45.76
55171;BME280;41060;47.510;8.680;2023-01-27T03:03:01;97087.94;;;3.61;46.37
55171;BME280;41060;47.510;8.680;2023-01-27T03:05:27;97085.78;;;3.52;45.84
55171;BME280;41060;47.510;8.680;2023-01-27T03:07:54;97080.44;;;3.70;46.18
55171;BME280;41060;47.510;8.680;2023-01-27T03:10:23;97077.72;;;3.56;46.03
55171;BME280;41060;47.510;8.680;2023-01-27T03:12:50;97075.84;;;3.58;45.75
55171;BME280;41060;47.510;8.680;2023-01-27T03:15:18;97071.88;;;3.67;45.88
55171;BME280;41060;47.510;8.680;2023-01-27T03:18:03;97079.66;;;3.68;45.80
55171;BME280;41060;47.510;8.680;2023-01-27T03:20:38;97076.09;;;3.54;45.87
55171;BME280;41060;47.510;8.680;2023-01-27T03:23:08;97053.41;;;3.20;46.46
55171;BME280;41060;47.510;8.680;2023-01-27T03:25:35;97069.25;;;3.17;46.55
55171;BME280;41060;47.510;8.680;2023-01-27T03:28:02;97085.09;;;3.31;46.74
55171;BME280;41060;47.510;8.680;2023-01-27T03:30:30;97077.84;;;3.36;46.23
55171;BME280;41060;47.510;8.680;2023-01-27T03:32:57;97082.78;;;3.25;46.76
55171;BME280;41060;47.510;8.680;2023-01-27T03:35:24;97082.72;;;3.26;47.83
55171;BME280;41060;47.510;8.680;2023-01-27T03:37:58;97078.34;;;3.27;47.42
55171;BME280;41060;47.510;8.680;2023-01-27T03:40:43;97082.84;;;3.23;47.93
55171;BME280;41060;47.510;8.680;2023-01-27T03:43:28;97078.00;;;3.33;48.35
55171;BME280;41060;47.510;8.680;2023-01-27T03:46:14;97041.31;;;3.00;48.33
55171;BME280;41060;47.510;8.680;2023-01-27T03:48:42;97088.03;;;3.25;48.51
55171;BME280;41060;47.510;8.680;2023-01-27T03:51:09;97074.63;;;3.14;49.11
55171;BME280;41060;47.510;8.680;2023-01-27T03:53:37;97003.31;;;2.58;48.98
55171;BME280;41060;47.510;8.680;2023-01-27T03:56:04;97081.72;;;3.12;48.97
55171;BME280;41060;47.510;8.680;2023-01-27T03:58:33;97081.56;;;2.97;49.29
55171;BME280;41060;47.510;8.680;2023-01-27T04:01:02;97072.88;;;2.97;49.74
55171;BME280;41060;47.510;8.680;2023-01-27T04:03:33;97069.31;;;2.81;49.69
55171;BME280;41060;47.510;8.680;2023-01-27T04:06:19;97093.50;;;3.03;49.73
55171;BME280;41060;47.510;8.680;2023-01-27T04:09:05;97085.69;;;2.84;49.91
55171;BME280;41060;47.510;8.680;2023-01-27T04:11:32;96939.53;;;2.09;49.70
55171;BME280;41060;47.510;8.680;2023-01-27T04:14:16;97103.34;;;2.98;49.92
55171;BME280;41060;47.510;8.680;2023-01-27T04:16:44;97018.94;;;2.60;49.49
55171;BME280;41060;47.510;8.680;2023-01-27T04:19:12;97014.09;;;2.70;49.35
55171;BME280;41060;47.510;8.680;2023-01-27T04:21:39;97082.31;;;3.17;49.18
55171;BME280;41060;47.510;8.680;2023-01-27T04:24:07;96970.72;;;2.31;49.75
55171;BME280;41060;47.510;8.680;2023-01-27T04:26:42;97048.56;;;2.42;49.76
55171;BME280;41060;47.510;8.680;2023-01-27T04:29:11;97095.28;;;2.67;50.52
55171;BME280;41060;47.510;8.680;2023-01-27T04:31:38;97034.41;;;2.29;50.49
55171;BME280;41060;47.510;8.680;2023-01-27T04:34:05;97088.97;;;2.71;49.82
55171;BME280;41060;47.510;8.680;2023-01-27T04:36:35;97085.88;;;2.63;50.25
55171;BME280;41060;47.510;8.680;2023-01-27T04:39:01;97038.34;;;2.37;50.37
55171;BME280;41060;47.510;8.680;2023-01-27T04:41:28;97076.53;;;2.58;50.39
55171;BME280;41060;47.510;8.680;2023-01-27T04:43:55;96998.56;;;2.13;50.34
55171;BME280;41060;47.510;8.680;2023-01-27T04:46:22;96979.25;;;1.99;50.36
55171;BME280;41060;47.510;8.680;2023-01-27T04:48:51;97014.44;;;2.28;50.30
55171;BME280;41060;47.510;8.680;2023-01-27T04:51:18;97073.84;;;2.77;49.56
55171;BME280;41060;47.510;8.680;2023-01-27T04:53:46;97085.84;;;2.98;49.66
55171;BME280;41060;47.510;8.680;2023-01-27T04:56:21;97080.84;;;2.94;49.11
55171;BME280;41060;47.510;8.680;2023-01-27T04:58:48;97006.63;;;2.45;50.22
55171;BME280;41060;47.510;8.680;2023-01-27T05:01:15;97070.25;;;2.80;49.51
55171;BME280;41060;47.510;8.680;2023-01-27T05:03:42;97079.41;;;2.88;49.85
55171;BME280;41060;47.510;8.680;2023-01-27T05:06:09;97076.16;;;3.01;48.92
55171;BME280;41060;47.510;8.680;2023-01-27T05:08:37;97079.72;;;3.17;48.78
55171;BME280;41060;47.510;8.680;2023-01-27T05:11:06;97009.50;;;2.75;48.63
55171;BME280;41060;47.510;8.680;2023-01-27T05:13:33;97036.69;;;2.71;49.17
55171;BME280;41060;47.510;8.680;2023-01-27T05:16:05;97089.88;;;2.88;49.56
55171;BME280;41060;47.510;8.680;2023-01-27T05:18:33;97090.69;;;2.72;49.53
55171;BME280;41060;47.510;8.680;2023-01-27T05:21:00;97086.81;;;2.97;49.18
55171;BME280;41060;47.510;8.680;2023-01-27T05:23:27;96786.59;;;1.16;49.30
55171;BME280;41060;47.510;8.680;2023-01-27T05:26:07;97003.19;;;2.26;50.53
55171;BME280;41060;47.510;8.680;2023-01-27T05:28:35;97088.69;;;2.77;50.95
55171;BME280;41060;47.510;8.680;2023-01-27T05:31:08;97014.78;;;2.20;51.29
55171;BME280;41060;47.510;8.680;2023-01-27T05:33:37;97073.00;;;2.60;51.55
55171;BME280;41060;47.510;8.680;2023-01-27T05:36:06;97104.13;;;2.64;52.23
55171;BME280;41060;47.510;8.680;2023-01-27T05:38:36;97092.13;;;2.60;52.71
55171;BME280;41060;47.510;8.680;2023-01-27T05:41:06;97029.41;;;2.24;52.45
55171;BME280;41060;47.510;8.680;2023-01-27T05:43:34;96888.91;;;1.59;51.90
55171;BME280;41060;47.510;8.680;2023-01-27T05:46:04;97004.03;;;2.26;52.75
55171;BME280;41060;47.510;8.680;2023-01-27T05:48:32;97091.78;;;2.49;52.82
55171;BME280;41060;47.510;8.680;2023-01-27T05:50:59;97110.88;;;2.51;53.29
55171;BME280;41060;47.510;8.680;2023-01-27T05:53:29;97098.25;;;2.23;53.82
55171;BME280;41060;47.510;8.680;2023-01-27T05:55:56;97067.66;;;1.88;54.32
55171;BME280;41060;47.510;8.680;2023-01-27T05:58:24;96936.09;;;0.98;54.89
55171;BME280;41060;47.510;8.680;2023-01-27T06:00:52;97116.59;;;2.22;54.84
55171;BME280;41060;47.510;8.680;2023-01-27T06:03:19;97106.34;;;2.17;54.20
55171;BME280;41060;47.510;8.680;2023-01-27T06:05:52;97108.72;;;2.23;54.02
55171;BME280;41060;47.510;8.680;2023-01-27T06:08:20;97102.56;;;2.24;54.14
55171;BME280;41060;47.510;8.680;2023-01-27T06:10:47;96986.88;;;1.66;54.06
55171;BME280;41060;47.510;8.680;2023-01-27T06:13:14;97112.69;;;2.49;53.63
55171;BME280;41060;47.510;8.680;2023-01-27T06:15:45;96916.72;;;1.41;53.96
55171;BME280;41060;47.510;8.680;2023-01-27T06:18:13;97114.94;;;2.56;53.41
55171;BME280;41060;47.510;8.680;2023-01-27T06:20:40;97018.50;;;1.78;53.45
55171;BME280;41060;47.510;8.680;2023-01-27T06:23:10;97124.97;;;2.47;54.20
55171;BME280;41060;47.510;8.680;2023-01-27T06:25:37;97135.16;;;2.53;53.45
55171;BME280;41060;47.510;8.680;2023-01-27T06:28:06;96831.22;;;0.73;52.51
55171;BME280;41060;47.510;8.680;2023-01-27T06:30:35;97096.81;;;2.35;53.14
55171;BME280;41060;47.510;8.680;2023-01-27T06:33:03;97138.41;;;2.39;53.02
55171;BME280;41060;47.510;8.680;2023-01-27T06:35:31;97130.09;;;2.31;53.54
55171;BME280;41060;47.510;8.680;2023-01-27T06:37:59;97133.34;;;2.36;53.11
55171;BME280;41060;47.510;8.680;2023-01-27T06:40:28;97092.19;;;2.23;52.50
55171;BME280;41060;47.510;8.680;2023-01-27T06:42:54;97131.06;;;2.47;53.13
55171;BME280;41060;47.510;8.680;2023-01-27T06:45:22;97141.31;;;2.33;53.36
55171;BME280;41060;47.510;8.680;2023-01-27T06:47:53;97131.78;;;2.13;54.16
55171;BME280;41060;47.510;8.680;2023-01-27T06:50:21;96955.09;;;1.39;52.97
55171;BME280;41060;47.510;8.680;2023-01-27T06:52:49;97076.00;;;1.96;53.36
55171;BME280;41060;47.510;8.680;2023-01-27T06:55:16;97154.69;;;2.46;52.73
55171;BME280;41060;47.510;8.680;2023-01-27T06:57:43;97092.13;;;1.87;52.79
55171;BME280;41060;47.510;8.680;2023-01-27T07:00:13;97130.00;;;1.95;53.74
55171;BME280;41060;47.510;8.680;2023-01-27T07:02:40;97154.81;;;2.24;53.75
55171;BME280;41060;47.510;8.680;2023-01-27T07:05:06;97167.44;;;2.33;53.18
55171;BME280;41060;47.510;8.680;2023-01-27T07:07:35;97161.16;;;2.37;53.12
55171;BME280;41060;47.510;8.680;2023-01-27T07:10:02;97159.31;;;2.39;53.34
55171;BME280;41060;47.510;8.680;2023-01-27T07:12:30;97097.25;;;1.88;52.90
55171;BME280;41060;47.510;8.680;2023-01-27T07:14:57;97162.78;;;2.40;52.87
55171;BME280;41060;47.510;8.680;2023-01-27T07:17:24;97160.72;;;2.28;52.93
55171;BME280;41060;47.510;8.680;2023-01-27T07:19:50;96973.34;;;1.20;52.96
55171;BME280;41060;47.510;8.680;2023-01-27T07:22:18;97163.97;;;2.33;53.04
55171;BME280;41060;47.510;8.680;2023-01-27T07:24:45;97048.50;;;1.31;53.57
55171;BME280;41060;47.510;8.680;2023-01-27T07:27:12;97172.44;;;2.19;53.08
55171;BME280;41060;47.510;8.680;2023-01-27T07:29:39;97155.00;;;2.01;53.85
55171;BME280;41060;47.510;8.680;2023-01-27T07:32:06;97130.81;;;1.77;54.22
55171;BME280;41060;47.510;8.680;2023-01-27T07:34:32;97118.69;;;1.76;53.78
55171;BME280;41060;47.510;8.680;2023-01-27T07:37:00;97059.47;;;1.58;54.09
55171;BME280;41060;47.510;8.680;2023-01-27T07:39:29;97182.84;;;2.21;53.59
55171;BME280;41060;47.510;8.680;2023-01-27T07:41:59;97184.47;;;2.23;52.90
55171;BME280;41060;47.510;8.680;2023-01-27T07:44:27;97169.19;;;2.14;53.61
55171;BME280;41060;47.510;8.680;2023-01-27T07:46:54;97193.06;;;2.25;53.28
55171;BME280;41060;47.510;8.680;2023-01-27T07:49:20;97192.81;;;2.31;53.49
55171;BME280;41060;47.510;8.680;2023-01-27T07:51:47;97188.22;;;2.36;52.76
55171;BME280;41060;47.510;8.680;2023-01-27T07:54:14;97112.06;;;1.88;53.40
55171;BME280;41060;47.510;8.680;2023-01-27T07:56:41;97168.84;;;2.22;53.46
55171;BME280;41060;47.510;8.680;2023-01-27T07:59:13;97201.69;;;2.08;53.54
55171;BME280;41060;47.510;8.680;2023-01-27T08:01:39;97194.94;;;2.03;54.02
55171;BME280;41060;47.510;8.680;2023-01-27T08:04:06;97132.81;;;1.91;53.49
55171;BME280;41060;47.510;8.680;2023-01-27T08:06:33;97155.00;;;2.01;53.83
55171;BME280;41060;47.510;8.680;2023-01-27T08:09:01;97196.53;;;2.26;54.08
55171;BME280;41060;47.510;8.680;2023-01-27T08:11:27;97197.25;;;2.29;53.06
55171;BME280;41060;47.510;8.680;2023-01-27T08:13:55;97103.19;;;1.92;52.40
55171;BME280;41060;47.510;8.680;2023-01-27T08:16:23;97201.50;;;2.50;52.97
55171;BME280;41060;47.510;8.680;2023-01-27T08:18:51;97203.59;;;2.24;53.08
55171;BME280;41060;47.510;8.680;2023-01-27T08:21:18;97138.28;;;1.66;53.41
55171;BME280;41060;47.510;8.680;2023-01-27T08:23:45;97246.00;;;1.90;53.75
55171;BME280;41060;47.510;8.680;2023-01-27T08:26:12;97235.63;;;2.08;53.46
55171;BME280;41060;47.510;8.680;2023-01-27T08:28:42;97164.44;;;1.85;54.27
55171;BME280;41060;47.510;8.680;2023-01-27T08:31:13;97084.94;;;1.32;52.90
55171;BME280;41060;47.510;8.680;2023-01-27T08:33:42;97171.16;;;1.70;53.68
55171;BME280;41060;47.510;8.680;2023-01-27T08:36:13;97021.97;;;1.01;53.01
55171;BME280;41060;47.510;8.680;2023-01-27T08:38:40;97193.16;;;2.24;53.36
55171;BME280;41060;47.510;8.680;2023-01-27T08:41:10;97210.41;;;2.46;52.39
55171;BME280;41060;47.510;8.680;2023-01-27T08:43:38;97212.28;;;2.43;52.49
55171;BME280;41060;47.510;8.680;2023-01-27T08:46:05;97218.16;;;2.29;52.60
55171;BME280;41060;47.510;8.680;2023-01-27T08:48:32;97152.00;;;1.90;53.18
55171;BME280;41060;47.510;8.680;2023-01-27T08:51:01;97215.06;;;2.58;52.67
55171;BME280;41060;47.510;8.680;2023-01-27T08:53:29;97218.47;;;2.61;52.23
55171;BME280;41060;47.510;8.680;2023-01-27T08:55:57;97216.44;;;2.47;52.09
55171;BME280;41060;47.510;8.680;2023-01-27T08:58:25;97223.50;;;2.26;52.45
55171;BME280;41060;47.510;8.680;2023-01-27T09:00:51;97224.56;;;2.41;52.79
55171;BME280;41060;47.510;8.680;2023-01-27T09:03:18;97141.84;;;1.84;52.44
55171;BME280;41060;47.510;8.680;2023-01-27T09:05:46;97239.91;;;2.30;53.02
55171;BME280;41060;47.510;8.680;2023-01-27T09:08:14;97224.94;;;2.52;52.29
55171;BME280;41060;47.510;8.680;2023-01-27T09:10:41;97228.31;;;2.35;52.67
55171;BME280;41060;47.510;8.680;2023-01-27T09:13:09;97227.47;;;2.16;53.72
55171;BME280;41060;47.510;8.680;2023-01-27T09:15:36;97211.78;;;2.16;53.22
55171;BME280;41060;47.510;8.680;2023-01-27T09:18:04;97174.16;;;1.61;54.01
55171;BME280;41060;47.510;8.680;2023-01-27T09:20:31;97236.22;;;2.15;53.63
55171;BME280;41060;47.510;8.680;2023-01-27T09:22:58;97225.09;;;2.10;53.50
55171;BME280;41060;47.510;8.680;2023-01-27T09:25:26;97217.53;;;2.04;53.44
55171;BME280;41060;47.510;8.680;2023-01-27T09:27:54;97235.06;;;2.02;53.45
55171;BME280;41060;47.510;8.680;2023-01-27T09:30:22;97237.63;;;2.22;53.66
55171;BME280;41060;47.510;8.680;2023-01-27T09:32:49;97234.34;;;2.17;53.04
55171;BME280;41060;47.510;8.680;2023-01-27T09:35:17;97230.72;;;2.21;53.22
55171;BME280;41060;47.510;8.680;2023-01-27T09:37:46;97204.88;;;1.95;53.20
55171;BME280;41060;47.510;8.680;2023-01-27T09:40:23;97215.69;;;1.87;53.40
55171;BME280;41060;47.510;8.680;2023-01-27T09:43:20;97241.44;;;2.34;53.05
55171;BME280;41060;47.510;8.680;2023-01-27T09:46:04;97241.44;;;2.34;52.89
55171;BME280;41060;47.510;8.680;2023-01-27T09:48:50;97242.38;;;2.33;53.00
55171;BME280;41060;47.510;8.680;2023-01-27T09:51:33;97127.09;;;1.83;52.19
55171;BME280;41060;47.510;8.680;2023-01-27T09:54:24;97235.69;;;2.46;52.41
55171;BME280;41060;47.510;8.680;2023-01-27T09:57:02;97168.88;;;1.83;52.62
55171;BME280;41060;47.510;8.680;2023-01-27T09:59:53;97229.28;;;2.53;52.69
55171;BME280;41060;47.510;8.680;2023-01-27T10:02:35;97195.63;;;2.27;51.65
55171;BME280;41060;47.510;8.680;2023-01-27T10:05:29;97228.41;;;2.52;52.33
55171;BME280;41060;47.510;8.680;2023-01-27T10:08:09;97232.63;;;2.36;52.38
55171;BME280;41060;47.510;8.680;2023-01-27T10:10:48;97220.91;;;2.64;51.47
55171;BME280;41060;47.510;8.680;2023-01-27T10:13:30;97221.56;;;2.50;51.52
55171;BME280;41060;47.510;8.680;2023-01-27T10:16:25;97153.19;;;2.22;51.67
55171;BME280;41060;47.510;8.680;2023-01-27T10:19:12;97227.75;;;2.47;52.44
55171;BME280;41060;47.510;8.680;2023-01-27T10:21:51;97226.94;;;2.66;51.51
55171;BME280;41060;47.510;8.680;2023-01-27T10:24:31;97228.91;;;2.61;51.36
55171;BME280;41060;47.510;8.680;2023-01-27T10:27:08;97234.06;;;2.62;51.37
55171;BME280;41060;47.510;8.680;2023-01-27T10:29:43;97230.03;;;2.55;50.43
55171;BME280;41060;47.510;8.680;2023-01-27T10:32:17;97179.53;;;2.36;50.77
55171;BME280;41060;47.510;8.680;2023-01-27T10:34:52;97182.25;;;2.33;51.25
55171;BME280;41060;47.510;8.680;2023-01-27T10:37:29;97224.09;;;2.70;50.53
55171;BME280;41060;47.510;8.680;2023-01-27T10:40:04;97186.16;;;2.24;51.25
55171;BME280;41060;47.510;8.680;2023-01-27T10:42:37;97229.41;;;2.69;50.80
55171;BME280;41060;47.510;8.680;2023-01-27T10:45:17;97221.06;;;2.61;50.55
55171;BME280;41060;47.510;8.680;2023-01-27T10:48:02;97212.25;;;2.44;51.03
55171;BME280;41060;47.510;8.680;2023-01-27T10:50:37;97228.19;;;2.57;51.26
55171;BME280;41060;47.510;8.680;2023-01-27T10:53:09;97235.25;;;2.55;50.81
55171;BME280;41060;47.510;8.680;2023-01-27T10:55:40;97131.94;;;1.51;51.68
55171;BME280;41060;47.510;8.680;2023-01-27T10:58:17;97239.63;;;2.36;51.83
55171;BME280;41060;47.510;8.680;2023-01-27T11:00:49;97246.50;;;2.57;50.90
55171;BME280;41060;47.510;8.680;2023-01-27T11:03:25;97218.50;;;2.40;51.78
55171;BME280;41060;47.510;8.680;2023-01-27T11:05:57;97245.72;;;2.55;51.01
55171;BME280;41060;47.510;8.680;2023-01-27T11:08:27;97241.69;;;2.67;51.09
55171;BME280;41060;47.510;8.680;2023-01-27T11:10:59;97234.34;;;2.75;50.62
55171;BME280;41060;47.510;8.680;2023-01-27T11:13:46;97233.63;;;2.71;50.34
55171;BME280;41060;47.510;8.680;2023-01-27T11:16:15;97230.22;;;2.69;50.72
55171;BME280;41060;47.510;8.680;2023-01-27T11:18:44;97212.91;;;2.85;50.38
55171;BME280;41060;47.510;8.680;2023-01-27T11:21:16;97187.88;;;2.44;50.43
55171;BME280;41060;47.510;8.680;2023-01-27T11:23:48;97183.25;;;2.49;51.05
55171;BME280;41060;47.510;8.680;2023-01-27T11:26:25;97232.44;;;2.78;50.50
55171;BME280;41060;47.510;8.680;2023-01-27T11:28:59;97238.94;;;2.70;51.16
55171;BME280;41060;47.510;8.680;2023-01-27T11:31:36;97236.75;;;2.61;51.15
55171;BME280;41060;47.510;8.680;2023-01-27T11:34:12;97193.03;;;2.45;50.60
55171;BME280;41060;47.510;8.680;2023-01-27T11:36:42;97201.63;;;2.66;50.48
55171;BME280;41060;47.510;8.680;2023-01-27T11:39:13;97117.09;;;1.92;51.00
55171;BME280;41060;47.510;8.680;2023-01-27T11:41:42;97228.97;;;2.59;50.99
55171;BME280;41060;47.510;8.680;2023-01-27T11:44:17;97201.44;;;2.52;51.04
55171;BME280;41060;47.510;8.680;2023-01-27T11:46:45;97215.03;;;2.40;51.60
55171;BME280;41060;47.510;8.680;2023-01-27T11:49:18;97227.56;;;2.71;51.16
55171;BME280;41060;47.510;8.680;2023-01-27T11:51:47;97232.84;;;2.69;50.78
55171;BME280;41060;47.510;8.680;2023-01-27T11:54:17;97222.56;;;2.66;51.41
55171;BME280;41060;47.510;8.680;2023-01-27T11:56:47;97228.84;;;2.81;50.40
55171;BME280;41060;47.510;8.680;2023-01-27T11:59:16;97224.19;;;2.69;50.74
55171;BME280;41060;47.510;8.680;2023-01-27T12:01:48;97229.84;;;2.60;50.93
55171;BME280;41060;47.510;8.680;2023-01-27T12:04:21;97223.81;;;2.39;51.83
55171;BME280;41060;47.510;8.680;2023-01-27T12:06:53;97222.47;;;2.30;51.74
55171;BME280;41060;47.510;8.680;2023-01-27T12:09:33;97223.09;;;2.35;51.72
55171;BME280;41060;47.510;8.680;2023-01-27T12:12:18;97217.88;;;2.35;52.11
55171;BME280;41060;47.510;8.680;2023-01-27T12:14:48;97215.69;;;2.45;51.83
55171;BME280;41060;47.510;8.680;2023-01-27T12:17:22;97216.38;;;2.30;52.14
55171;BME280;41060;47.510;8.680;2023-01-27T12:19:56;97214.13;;;2.41;51.53
55171;BME280;41060;47.510;8.680;2023-01-27T12:22:25;97208.13;;;2.57;51.15
55171;BME280;41060;47.510;8.680;2023-01-27T12:24:57;97219.44;;;2.58;51.54
55171;BME280;41060;47.510;8.680;2023-01-27T12:27:27;97200.88;;;2.45;51.59
55171;BME280;41060;47.510;8.680;2023-01-27T12:29:58;97216.88;;;2.56;51.62
55171;BME280;41060;47.510;8.680;2023-01-27T12:32:33;97211.31;;;2.45;52.49
55171;BME280;41060;47.510;8.680;2023-01-27T12:35:02;97208.47;;;2.50;52.32
55171;BME280;41060;47.510;8.680;2023-01-27T12:37:31;97206.16;;;2.44;51.81
55171;BME280;41060;47.510;8.680;2023-01-27T12:40:00;97204.59;;;2.40;52.05
55171;BME280;41060;47.510;8.680;2023-01-27T12:42:36;97201.22;;;2.38;51.52
55171;BME280;41060;47.510;8.680;2023-01-27T12:45:21;97203.59;;;2.42;51.27
55171;BME280;41060;47.510;8.680;2023-01-27T12:48:00;97210.81;;;2.37;52.21
55171;BME280;41060;47.510;8.680;2023-01-27T12:50:31;97206.97;;;2.26;51.75
55171;BME280;41060;47.510;8.680;2023-01-27T12:53:10;97208.75;;;2.25;52.55
55171;BME280;41060;47.510;8.680;2023-01-27T12:55:40;97202.28;;;2.52;52.26
55171;BME280;41060;47.510;8.680;2023-01-27T12:58:28;97192.94;;;2.47;51.76
55171;BME280;41060;47.510;8.680;2023-01-27T13:00:57;97199.72;;;2.32;52.40
55171;BME280;41060;47.510;8.680;2023-01-27T13:03:26;97205.28;;;2.25;52.35
55171;BME280;41060;47.510;8.680;2023-01-27T13:05:57;97210.69;;;2.01;52.36
55171;BME280;41060;47.510;8.680;2023-01-27T13:08:31;97202.72;;;2.04;52.72
55171;BME280;41060;47.510;8.680;2023-01-27T13:11:00;97208.03;;;2.22;52.07
55171;BME280;41060;47.510;8.680;2023-01-27T13:13:29;97208.75;;;2.25;51.97
55171;BME280;41060;47.510;8.680;2023-01-27T13:16:02;97215.72;;;2.25;52.07
55171;BME280;41060;47.510;8.680;2023-01-27T13:18:32;97197.72;;;2.18;52.64
55171;BME280;41060;47.510;8.680;2023-01-27T13:21:08;97219.06;;;2.28;52.34
55171;BME280;41060;47.510;8.680;2023-01-27T13:23:38;97219.47;;;2.19;52.45
55171;BME280;41060;47.510;8.680;2023-01-27T13:26:09;97222.03;;;2.21;52.85
55171;BME280;41060;47.510;8.680;2023-01-27T13:28:42;97227.47;;;2.16;52.24